Time;durP1;ratioP1;P1;durP2;ratioP2;P2;SDS_P1;SDS_P2;PMS_P1;PMS_P2;Temp;Humidity;BMP_temperature;BMP_pressure;BME280_temperature;BME280_humidity;BME280_pressure;Samples;Min_cycle;Max_cycle;Signal;HPM_P1;HPM_P2
2023/06/21 00:02:19;;;;;;;11.35;8.32;;;;;;;19.11;71.71;100452.41;5064993;28;20028;-60
2023/06/21 00:04:45;;;;;;;10.43;8.02;;;;;;;18.80;72.31;100417.72;5064953;28;20020;-60
2023/06/21 00:07:10;;;;;;;11.55;7.93;;;;;;;18.87;72.54;100433.25;5064615;28;20028;-61
2023/06/21 00:09:35;;;;;;;13.73;9.25;;;;;;;18.89;72.86;100447.19;5064969;28;20063;-61
2023/06/21 00:12:01;;;;;;;13.40;8.63;;;;;;;18.81;73.30;100451.00;5064530;28;20056;-60
2023/06/21 00:14:26;;;;;;;12.00;7.70;;;;;;;18.75;73.60;100448.66;5064644;28;20097;-61
2023/06/21 00:16:52;;;;;;;10.10;7.50;;;;;;;18.71;73.78;100447.03;5064594;28;20032;-60
2023/06/21 00:19:18;;;;;;;14.18;9.13;;;;;;;18.66;74.01;100446.38;5063422;28;20025;-62
2023/06/21 00:21:44;;;;;;;14.77;8.27;;;;;;;18.62;74.05;100448.31;5064590;28;20084;-61
2023/06/21 00:24:09;;;;;;;11.40;8.73;;;;;;;18.66;73.93;100451.63;5065070;28;20041;-61
2023/06/21 00:26:34;;;;;;;11.73;8.20;;;;;;;18.58;74.15;100436.19;5064573;28;20029;-60
2023/06/21 00:29:00;;;;;;;9.80;7.75;;;;;;;18.67;74.31;100450.72;5064515;28;20032;-61
2023/06/21 00:31:25;;;;;;;13.20;8.30;;;;;;;18.63;74.47;100446.50;5064873;28;20036;-61
2023/06/21 00:33:50;;;;;;;11.48;8.43;;;;;;;18.62;74.54;100452.69;5063069;28;20470;-61
2023/06/21 00:36:16;;;;;;;12.63;7.68;;;;;;;18.56;74.74;100446.75;5064355;28;20080;-61
2023/06/21 00:38:41;;;;;;;10.60;8.73;;;;;;;18.50;74.85;100446.19;5064691;28;20032;-61
2023/06/21 00:41:08;;;;;;;11.07;8.90;;;;;;;18.48;74.68;100450.63;5064254;28;20036;-62
2023/06/21 00:43:33;;;;;;;13.80;8.82;;;;;;;18.41;75.04;100450.91;5064675;28;20021;-61
2023/06/21 00:45:59;;;;;;;10.80;8.27;;;;;;;18.32;75.39;100436.34;5063043;28;20031;-60
2023/06/21 00:48:28;;;;;;;12.55;8.88;;;;;;;18.27;75.37;100445.34;5064407;28;20028;-60
2023/06/21 00:50:58;;;;;;;14.82;8.75;;;;;;;18.24;75.82;100446.31;5064303;28;20036;-61
2023/06/21 00:53:28;;;;;;;10.45;8.05;;;;;;;18.22;76.05;100442.91;5063248;28;20385;-61
2023/06/21 00:56:00;;;;;;;13.27;8.10;;;;;;;18.15;76.69;100428.28;5064339;28;20024;-61
2023/06/21 00:58:26;;;;;;;11.57;8.35;;;;;;;18.16;77.07;100427.38;5067468;28;20469;-61
2023/06/21 01:00:52;;;;;;;15.57;9.70;;;;;;;18.15;77.42;100439.66;5068296;28;20032;-60
2023/06/21 01:03:19;;;;;;;12.48;9.45;;;;;;;18.13;77.55;100422.25;5068342;28;20247;-61
2023/06/21 01:06:02;;;;;;;12.48;8.90;;;;;;;18.12;77.63;100425.78;5068155;28;20025;-61
2023/06/21 01:08:36;;;;;;;12.27;8.38;;;;;;;18.07;78.11;100423.31;5068245;28;20025;-61
2023/06/21 01:11:06;;;;;;;14.68;8.48;;;;;;;18.09;78.00;100424.97;5068008;28;20035;-61
2023/06/21 01:13:54;;;;;;;19.00;8.02;;;;;;;18.09;78.17;100418.84;5068386;28;20346;-62
2023/06/21 01:16:23;;;;;;;11.32;8.15;;;;;;;18.04;77.93;100411.16;5068063;28;20021;-61
2023/06/21 01:18:52;;;;;;;14.55;8.55;;;;;;;18.06;78.04;100411.09;5067911;28;20053;-61
2023/06/21 01:21:22;;;;;;;12.75;8.05;;;;;;;17.95;78.11;100394.00;5067447;28;20087;-61
2023/06/21 01:23:57;;;;;;;12.05;8.40;;;;;;;18.07;77.54;100403.16;5068214;28;20028;-61
2023/06/21 01:26:52;;;;;;;10.52;6.97;;;;;;;18.02;77.62;100397.22;5068008;28;20028;-61
2023/06/21 01:29:21;;;;;;;8.68;6.22;;;;;;;17.96;77.61;100394.84;5067748;28;20025;-61
2023/06/21 01:31:50;;;;;;;10.88;8.55;;;;;;;18.00;77.37;100404.31;5068008;28;20032;-61
2023/06/21 01:34:17;;;;;;;13.52;7.13;;;;;;;17.95;77.15;100395.75;5067914;28;20031;-62
2023/06/21 01:36:42;;;;;;;8.05;5.53;;;;;;;17.92;77.09;100401.13;5067556;28;20021;-62
2023/06/21 01:39:09;;;;;;;9.25;6.28;;;;;;;17.97;76.18;100386.06;5067897;28;20035;-62
2023/06/21 01:41:35;;;;;;;9.68;6.97;;;;;;;17.93;75.68;100392.34;5067453;28;20457;-60
2023/06/21 01:44:07;;;;;;;11.27;6.78;;;;;;;17.96;74.94;100390.44;5067502;28;20063;-61
2023/06/21 01:46:33;;;;;;;9.55;6.60;;;;;;;17.93;74.68;100385.31;5067640;28;20056;-60
2023/06/21 01:49:00;;;;;;;8.85;5.47;;;;;;;18.00;74.26;100385.06;5067436;28;20028;-62
2023/06/21 01:51:26;;;;;;;9.00;5.95;;;;;;;17.90;74.08;100374.94;5065799;28;20496;-61
2023/06/21 01:53:52;;;;;;;6.28;5.07;;;;;;;17.84;74.34;100370.78;5067381;28;20025;-62
2023/06/21 01:56:18;;;;;;;7.57;5.75;;;;;;;17.86;74.33;100368.06;5067164;28;20074;-62
2023/06/21 01:58:46;;;;;;;6.75;6.00;;;;;;;17.88;74.14;100357.50;5067331;28;20029;-60
2023/06/21 02:01:12;;;;;;;6.00;5.40;;;;;;;17.93;73.72;100352.94;5067205;28;20028;-61
2023/06/21 02:03:43;;;;;;;6.93;5.55;;;;;;;17.94;73.54;100355.50;5067114;28;20040;-62
2023/06/21 02:06:11;;;;;;;5.93;4.93;;;;;;;17.94;73.30;100359.88;5066951;28;20028;-62
2023/06/21 02:08:38;;;;;;;6.45;4.93;;;;;;;17.92;72.56;100348.63;5066955;28;20033;-62
2023/06/21 02:11:04;;;;;;;6.63;5.05;;;;;;;17.86;72.41;100341.00;5067023;28;20441;-61
2023/06/21 02:13:29;;;;;;;9.27;5.10;;;;;;;17.94;72.43;100352.88;5066961;28;20089;-61
2023/06/21 02:15:55;;;;;;;7.80;5.72;;;;;;;17.99;71.79;100360.56;5065723;28;20477;-62
2023/06/21 02:18:24;;;;;;;5.88;4.90;;;;;;;18.00;71.29;100349.16;5066759;28;20251;-61
2023/06/21 02:20:50;;;;;;;6.45;5.18;;;;;;;17.99;71.14;100347.44;5066551;28;20134;-61
2023/06/21 02:23:16;;;;;;;7.35;4.72;;;;;;;17.98;71.22;100353.63;5066858;28;20021;-62
2023/06/21 02:25:42;;;;;;;8.02;5.20;;;;;;;18.07;69.44;100352.38;5066751;28;20051;-62
2023/06/21 02:28:07;;;;;;;6.15;4.70;;;;;;;18.04;69.64;100348.13;5067081;28;20029;-61
2023/06/21 02:30:32;;;;;;;7.03;5.45;;;;;;;18.09;69.45;100354.03;5066568;28;20100;-62
2023/06/21 02:32:58;;;;;;;8.10;5.38;;;;;;;18.10;69.32;100341.75;5066720;28;20037;-62
2023/06/21 02:35:24;;;;;;;7.20;4.88;;;;;;;18.09;69.10;100338.28;5066065;28;20074;-60
2023/06/21 02:37:49;;;;;;;7.22;4.75;;;;;;;18.08;69.02;100336.56;5066755;28;20135;-60
2023/06/21 02:40:15;;;;;;;7.07;5.10;;;;;;;18.06;69.39;100333.16;5066211;28;20426;-60
2023/06/21 02:42:40;;;;;;;7.53;4.63;;;;;;;18.04;69.08;100332.34;5066613;28;20025;-61
2023/06/21 02:45:09;;;;;;;6.22;4.72;;;;;;;17.94;68.69;100312.63;5066351;28;20108;-61
2023/06/21 02:47:34;;;;;;;8.80;4.43;;;;;;;18.03;68.99;100321.91;5066390;28;20036;-61
2023/06/21 02:49:59;;;;;;;7.03;4.88;;;;;;;18.05;68.65;100325.34;5066189;28;20033;-61
2023/06/21 02:52:25;;;;;;;5.03;4.53;;;;;;;18.04;68.70;100315.72;5066140;28;20436;-61
2023/06/21 02:54:52;;;;;;;6.55;4.70;;;;;;;18.04;68.85;100326.22;5065986;28;20033;-61
2023/06/21 02:57:18;;;;;;;6.35;4.30;;;;;;;18.06;68.66;100321.78;5066032;28;20027;-61
2023/06/21 02:59:43;;;;;;;5.47;4.35;;;;;;;18.18;67.92;100328.31;5065994;28;20052;-61
2023/06/21 03:02:09;;;;;;;8.63;4.55;;;;;;;18.15;68.25;100323.19;5066089;28;20076;-61
2023/06/21 03:04:35;;;;;;;4.80;3.85;;;;;;;18.20;67.74;100323.88;5065784;28;20035;-59
2023/06/21 03:07:01;;;;;;;7.05;4.43;;;;;;;18.24;67.08;100328.09;5065741;28;20036;-60
2023/06/21 03:09:29;;;;;;;4.65;3.83;;;;;;;18.25;67.07;100310.53;5065903;28;20049;-59
2023/06/21 03:11:55;;;;;;;7.95;4.43;;;;;;;18.24;67.32;100309.69;5065762;28;20021;-62
2023/06/21 03:14:20;;;;;;;5.97;4.22;;;;;;;18.29;66.79;100309.50;5065521;28;20397;-60
2023/06/21 03:16:45;;;;;;;4.70;3.88;;;;;;;18.48;66.16;100311.31;5065615;28;20028;-61
2023/06/21 03:19:11;;;;;;;5.05;4.28;;;;;;;18.27;66.74;100311.31;5065245;28;20036;-60
2023/06/21 03:21:36;;;;;;;9.98;4.53;;;;;;;18.21;66.95;100305.41;5065060;28;20051;-61
2023/06/21 03:24:03;;;;;;;5.43;4.50;;;;;;;18.26;66.85;100310.47;5065592;28;20378;-60
2023/06/21 03:26:29;;;;;;;6.38;4.75;;;;;;;18.23;67.25;100310.59;5065459;28;20060;-60
2023/06/21 03:28:54;;;;;;;8.05;5.22;;;;;;;18.26;67.15;100310.47;5064325;28;20032;-61
2023/06/21 03:31:20;;;;;;;6.00;4.40;;;;;;;18.25;67.25;100310.53;5065376;28;20036;-61
2023/06/21 03:33:46;;;;;;;5.03;4.30;;;;;;;18.32;66.97;100312.00;5065408;28;20392;-60
2023/06/21 03:36:11;;;;;;;7.88;5.07;;;;;;;18.35;66.62;100301.34;5065209;28;20048;-61
2023/06/21 03:38:37;;;;;;;8.65;4.32;;;;;;;18.40;66.66;100301.97;5065261;28;20027;-61
2023/06/21 03:41:02;;;;;;;5.65;4.30;;;;;;;18.42;66.20;100300.16;5065208;28;20428;-60
2023/06/21 03:43:27;;;;;;;5.38;4.22;;;;;;;18.49;66.38;100302.50;5065306;28;20017;-61
2023/06/21 03:45:53;;;;;;;6.95;4.40;;;;;;;18.61;65.62;100296.72;5064969;28;20033;-60
2023/06/21 03:48:18;;;;;;;7.45;4.00;;;;;;;18.64;65.57;100304.47;5065093;28;20029;-61
2023/06/21 03:50:44;;;;;;;7.53;4.30;;;;;;;18.64;65.56;100308.88;5064927;28;20025;-60
2023/06/21 03:53:09;;;;;;;5.13;3.90;;;;;;;18.73;64.87;100305.84;5065028;28;20028;-61
2023/06/21 03:55:37;;;;;;;5.75;3.90;;;;;;;18.72;65.11;100306.78;5065091;28;20025;-61
2023/06/21 03:58:03;;;;;;;4.28;3.80;;;;;;;18.88;64.18;100308.72;5065104;28;20025;-61
2023/06/21 04:00:28;;;;;;;10.15;4.57;;;;;;;18.86;64.03;100307.94;5064909;28;20032;-61
2023/06/21 04:02:54;;;;;;;6.97;4.05;;;;;;;18.74;65.04;100315.44;5064950;28;20055;-61
2023/06/21 04:05:20;;;;;;;5.90;4.55;;;;;;;18.70;65.18;100290.22;5064964;28;20025;-62
2023/06/21 04:07:46;;;;;;;6.43;3.95;;;;;;;18.91;64.33;100306.78;5064885;28;20032;-61
2023/06/21 04:10:13;;;;;;;7.57;4.32;;;;;;;18.93;63.72;100294.41;5064971;28;20040;-61
2023/06/21 04:12:39;;;;;;;7.85;4.93;;;;;;;18.96;63.60;100290.81;5064920;28;20642;-61
2023/06/21 04:15:05;;;;;;;5.18;3.70;;;;;;;19.05;63.52;100295.66;5063052;28;20440;-60
2023/06/21 04:17:31;;;;;;;4.78;3.63;;;;;;;19.03;64.18;100292.22;5064952;28;20025;-61
2023/06/21 04:19:57;;;;;;;6.50;4.35;;;;;;;19.21;63.66;100292.34;5064281;28;20553;-61
2023/06/21 04:22:23;;;;;;;4.43;3.35;;;;;;;19.42;63.15;100284.34;5064628;28;20044;-61
2023/06/21 04:24:49;;;;;;;4.72;3.78;;;;;;;19.63;62.84;100284.25;5065055;28;20056;-60
2023/06/21 04:27:15;;;;;;;4.72;3.78;;;;;;;19.85;62.30;100267.38;5064749;28;20035;-62
2023/06/21 04:29:40;;;;;;;4.78;3.80;;;;;;;20.12;60.83;100274.84;5064582;28;20021;-62
2023/06/21 04:32:08;;;;;;;4.90;3.78;;;;;;;20.27;61.61;100273.25;5065706;28;20106;-61
2023/06/21 04:34:34;;;;;;;5.78;3.85;;;;;;;20.66;60.03;100264.16;5068668;28;20080;-61
2023/06/21 04:37:05;;;;;;;3.80;3.20;;;;;;;20.91;57.13;100257.59;5068388;28;20025;-60
2023/06/21 04:39:31;;;;;;;4.70;3.85;;;;;;;20.80;57.65;100254.63;5068800;28;20020;-61
2023/06/21 04:41:58;;;;;;;7.88;3.60;;;;;;;20.91;56.94;100254.09;5068429;28;20488;-61
2023/06/21 04:44:23;;;;;;;4.47;3.53;;;;;;;20.95;56.45;100254.78;5068635;28;20021;-60
2023/06/21 04:46:49;;;;;;;4.40;3.25;;;;;;;20.88;56.28;100256.88;5068397;28;20063;-60
2023/06/21 04:49:15;;;;;;;7.65;3.38;;;;;;;20.76;58.02;100245.19;5068506;28;20056;-60
2023/06/21 04:51:43;;;;;;;3.85;3.33;;;;;;;21.08;58.05;100257.59;5068324;28;20025;-59
2023/06/21 04:54:08;;;;;;;4.45;3.35;;;;;;;21.55;55.98;100256.72;5068281;28;20096;-61
2023/06/21 04:56:35;;;;;;;4.57;3.22;;;;;;;21.52;55.56;100248.97;5068263;28;20025;-61
2023/06/21 04:59:01;;;;;;;4.63;3.47;;;;;;;21.62;55.32;100251.06;5068217;28;20029;-61
2023/06/21 05:01:27;;;;;;;7.85;4.03;;;;;;;21.75;55.40;100248.56;5068078;28;20040;-61
2023/06/21 05:03:53;;;;;;;4.57;3.60;;;;;;;21.93;54.71;100254.63;5068451;28;20518;-60
2023/06/21 05:06:22;;;;;;;6.82;3.70;;;;;;;22.04;54.61;100254.81;5068222;28;20029;-60
2023/06/21 05:08:48;;;;;;;3.75;2.95;;;;;;;22.10;53.86;100250.09;5068511;28;20032;-59
2023/06/21 05:11:14;;;;;;;5.20;3.58;;;;;;;21.98;53.90;100247.25;5067762;28;20033;-60
2023/06/21 05:13:39;;;;;;;4.38;3.28;;;;;;;22.00;54.54;100241.88;5067680;28;20033;-60
2023/06/21 05:16:05;;;;;;;4.57;2.83;;;;;;;22.21;53.49;100252.09;5067617;28;20040;-61
2023/06/21 05:18:30;;;;;;;4.60;3.80;;;;;;;21.98;53.57;100247.25;5067947;28;20021;-61
2023/06/21 05:20:56;;;;;;;7.30;3.42;;;;;;;21.78;53.73;100253.72;5067219;28;20072;-61
2023/06/21 05:23:21;;;;;;;3.80;3.28;;;;;;;21.53;54.58;100250.66;5067835;28;20029;-59
2023/06/21 05:25:47;;;;;;;6.82;3.85;;;;;;;21.35;54.53;100257.84;5067551;28;20040;-61
2023/06/21 05:28:12;;;;;;;4.18;3.20;;;;;;;21.08;55.24;100252.31;5067582;28;20039;-61
2023/06/21 05:30:38;;;;;;;3.78;2.72;;;;;;;20.95;55.63;100252.13;5066329;28;20473;-61
2023/06/21 05:33:03;;;;;;;6.32;3.83;;;;;;;20.51;56.98;100235.97;5067558;28;20025;-61
2023/06/21 05:35:28;;;;;;;3.40;2.78;;;;;;;20.53;56.98;100253.41;5067413;28;20048;-59
2023/06/21 05:37:54;;;;;;;12.38;3.38;;;;;;;20.46;57.29;100252.03;5066630;28;20538;-62
2023/06/21 05:40:20;;;;;;;3.83;3.00;;;;;;;20.28;57.78;100238.03;5066856;28;20031;-61
2023/06/21 05:42:46;;;;;;;6.80;3.85;;;;;;;20.25;57.98;100240.81;5066691;28;20036;-61
2023/06/21 05:45:11;;;;;;;3.95;3.33;;;;;;;20.45;57.84;100239.78;5067229;28;20039;-62
2023/06/21 05:47:37;;;;;;;4.43;3.17;;;;;;;20.27;58.07;100234.53;5067368;28;20025;-62
2023/06/21 05:50:03;;;;;;;4.35;3.65;;;;;;;20.39;57.92;100237.47;5067264;28;20039;-61
2023/06/21 05:52:29;;;;;;;6.05;4.57;;;;;;;20.19;58.37;100227.03;5067300;28;20029;-60
2023/06/21 05:54:55;;;;;;;5.55;3.83;;;;;;;20.13;59.48;100237.88;5067135;28;20061;-60
2023/06/21 05:57:21;;;;;;;5.15;3.45;;;;;;;20.26;58.98;100245.16;5067113;28;20028;-61
2023/06/21 05:59:47;;;;;;;6.65;3.70;;;;;;;20.30;58.53;100247.53;5067335;28;20021;-61
2023/06/21 06:02:13;;;;;;;6.00;4.20;;;;;;;20.20;59.03;100246.34;5067230;28;20036;-61
2023/06/21 06:04:39;;;;;;;5.60;3.70;;;;;;;20.13;59.51;100244.94;5067272;28;20053;-61
2023/06/21 06:07:04;;;;;;;6.00;3.65;;;;;;;20.16;59.62;100247.44;5067008;28;20024;-61
2023/06/21 06:09:30;;;;;;;3.88;3.28;;;;;;;20.13;59.25;100248.44;5067188;28;20055;-61
2023/06/21 06:11:56;;;;;;;5.25;3.20;;;;;;;20.08;59.98;100246.97;5067118;28;20033;-62
2023/06/21 06:14:23;;;;;;;5.63;4.13;;;;;;;20.15;59.65;100254.47;5067021;28;20467;-61
2023/06/21 06:16:48;;;;;;;5.95;4.22;;;;;;;20.16;60.08;100252.72;5067060;28;20028;-60
2023/06/21 06:19:14;;;;;;;4.10;3.47;;;;;;;20.17;60.20;100254.41;5066992;28;20457;-61
2023/06/21 06:21:43;;;;;;;9.35;3.88;;;;;;;20.12;60.49;100261.69;5066710;28;20489;-62
2023/06/21 06:24:09;;;;;;;5.35;3.83;;;;;;;20.19;60.05;100249.91;5066792;28;20021;-60
2023/06/21 06:26:34;;;;;;;6.30;4.10;;;;;;;20.08;60.79;100253.06;5066309;28;20021;-59
2023/06/21 06:29:00;;;;;;;4.85;3.47;;;;;;;20.15;60.55;100248.34;5066739;28;20361;-61
2023/06/21 06:31:27;;;;;;;9.73;4.05;;;;;;;20.20;60.62;100251.59;5066533;28;20021;-61
2023/06/21 06:33:53;;;;;;;4.47;3.08;;;;;;;20.28;60.72;100249.44;5066729;28;20458;-61
2023/06/21 06:36:18;;;;;;;4.85;3.92;;;;;;;20.30;60.25;100229.09;5066554;28;20035;-61
2023/06/21 06:38:50;;;;;;;5.05;3.63;;;;;;;20.47;60.05;100243.19;5066638;28;20449;-61
2023/06/21 06:41:17;;;;;;;;;;;;;;;20.51;60.45;100242.09;5066954;28;20076;-61
2023/06/21 06:43:43;;;;;;;5.88;3.92;;;;;;;20.60;60.32;100243.38;5066470;28;19909;-60
2023/06/21 06:46:08;;;;;;;5.50;4.13;;;;;;;20.70;60.13;100234.97;5066238;28;20040;-60
2023/06/21 06:48:33;;;;;;;5.30;3.67;;;;;;;20.73;60.05;100227.75;5066598;28;20158;-61
2023/06/21 06:50:59;;;;;;;4.65;3.72;;;;;;;20.85;60.08;100234.16;5066255;28;20398;-60
2023/06/21 06:53:24;;;;;;;5.85;4.07;;;;;;;20.95;59.71;100229.25;5066727;28;20024;-61
2023/06/21 06:55:54;;;;;;;5.53;3.78;;;;;;;21.12;59.19;100235.41;5065119;28;20025;-61
2023/06/21 06:58:21;;;;;;;4.25;3.70;;;;;;;21.06;59.08;100228.66;5066241;28;20032;-61
2023/06/21 07:00:47;;;;;;;6.85;4.70;;;;;;;21.08;58.89;100225.94;5065853;28;20025;-61
2023/06/21 07:03:12;;;;;;;5.88;3.53;;;;;;;21.04;59.34;100220.81;5066196;28;20025;-61
2023/06/21 07:05:46;;;;;;;4.90;4.03;;;;;;;21.18;58.25;100222.69;5065863;28;20048;-60
2023/06/21 07:08:11;;;;;;;7.82;4.05;;;;;;;20.97;58.94;100216.84;5066184;28;20029;-61
2023/06/21 07:10:37;;;;;;;4.45;3.60;;;;;;;21.04;58.85;100228.75;5065890;28;20055;-61
2023/06/21 07:13:03;;;;;;;5.18;3.72;;;;;;;20.90;59.41;100224.19;5066170;28;20024;-62
2023/06/21 07:15:28;;;;;;;4.03;3.20;;;;;;;21.00;58.90;100234.28;5064478;28;20028;-60
2023/06/21 07:17:55;;;;;;;5.07;3.85;;;;;;;20.92;59.16;100218.88;5064444;28;20036;-61
2023/06/21 07:20:21;;;;;;;4.55;3.88;;;;;;;20.92;58.94;100213.59;5065679;28;20041;-61
2023/06/21 07:22:46;;;;;;;8.02;4.60;;;;;;;20.73;60.04;100214.56;5065649;28;20515;-60
2023/06/21 07:25:11;;;;;;;6.03;3.80;;;;;;;20.87;59.86;100218.22;5065583;28;20039;-61
2023/06/21 07:27:37;;;;;;;7.05;4.10;;;;;;;20.80;60.04;100223.84;5065710;28;20465;-61
2023/06/21 07:30:04;;;;;;;5.55;3.97;;;;;;;20.88;60.12;100219.94;5065332;28;20055;-61
2023/06/21 07:32:30;;;;;;;5.32;3.97;;;;;;;20.98;59.65;100215.03;5065608;28;20031;-61
2023/06/21 07:34:57;;;;;;;5.10;4.45;;;;;;;20.82;60.14;100207.94;5065791;28;20029;-60
2023/06/21 07:37:23;;;;;;;5.32;4.63;;;;;;;20.76;60.54;100217.03;5065426;28;20032;-61
2023/06/21 07:39:49;;;;;;;5.00;4.35;;;;;;;20.79;60.69;100219.50;5065563;28;20500;-62
2023/06/21 07:42:14;;;;;;;6.05;3.25;;;;;;;20.86;60.22;100204.22;5065315;28;20112;-60
2023/06/21 07:44:39;;;;;;;8.15;4.95;;;;;;;20.83;60.63;100198.25;5063751;28;20035;-61
2023/06/21 07:47:05;;;;;;;5.93;3.97;;;;;;;20.72;60.74;100212.84;5065346;28;20096;-60
2023/06/21 07:49:30;;;;;;;4.25;3.72;;;;;;;20.74;60.95;100215.41;5065429;28;20055;-61
2023/06/21 07:51:56;;;;;;;6.05;4.18;;;;;;;20.76;60.87;100213.53;5065178;28;20464;-61
2023/06/21 07:54:21;;;;;;;4.97;3.97;;;;;;;20.60;61.60;100213.53;5065246;28;20025;-61
2023/06/21 07:56:46;;;;;;;4.90;4.32;;;;;;;20.63;61.73;100216.00;5065115;28;20023;-62
2023/06/21 07:59:12;;;;;;;6.65;4.32;;;;;;;20.66;61.78;100218.47;5065177;28;20025;-60
2023/06/21 08:01:37;;;;;;;5.82;4.57;;;;;;;20.62;61.99;100219.56;5064986;28;20047;-61
2023/06/21 08:04:03;;;;;;;6.70;4.32;;;;;;;20.58;62.44;100212.75;5065103;28;20040;-61
2023/06/21 08:06:28;;;;;;;5.88;3.53;;;;;;;20.73;61.86;100219.00;5064587;28;20080;-61
2023/06/21 08:08:54;;;;;;;6.03;4.18;;;;;;;20.60;62.17;100208.25;5065153;28;20465;-61
2023/06/21 08:11:19;;;;;;;5.35;4.10;;;;;;;20.52;62.07;100220.06;5064984;28;20111;-61
2023/06/21 08:13:45;;;;;;;5.35;4.10;;;;;;;20.43;63.09;100221.41;5064980;28;20017;-61
2023/06/21 08:16:11;;;;;;;3.75;3.30;;;;;;;20.17;64.45;100221.00;5063601;28;20112;-61
2023/06/21 08:18:36;;;;;;;5.55;3.90;;;;;;;20.08;65.49;100231.16;5063622;28;20067;-61
2023/06/21 08:21:03;;;;;;;6.65;4.22;;;;;;;19.91;66.42;100227.56;5064509;28;20047;-61
2023/06/21 08:23:28;;;;;;;4.57;3.47;;;;;;;19.50;68.37;100237.47;5065112;28;20404;-62
2023/06/21 08:25:54;;;;;;;5.93;4.10;;;;;;;18.94;71.04;100240.91;5064965;28;20025;-60
2023/06/21 08:28:19;;;;;;;7.63;4.85;;;;;;;18.47;73.39;100231.63;5065026;28;20050;-60
2023/06/21 08:30:45;;;;;;;5.38;4.40;;;;;;;18.19;76.20;100232.84;5065048;28;20025;-59
2023/06/21 08:33:11;;;;;;;5.72;3.92;;;;;;;17.98;77.84;100231.94;5065083;28;20021;-60
2023/06/21 08:35:37;;;;;;;6.47;4.40;;;;;;;17.78;80.41;100242.34;5066950;23;20520;-62
2023/06/21 08:38:02;;;;;;;7.32;5.32;;;;;;;17.67;81.69;100237.56;5051010;22;20054;-61
2023/06/21 08:40:33;;;;;;;7.40;4.70;;;;;;;17.53;83.20;100243.38;5044887;28;20068;-61
2023/06/21 08:42:59;;;;;;;6.43;4.10;;;;;;;17.44;84.62;100235.88;5045178;28;20021;-62
2023/06/21 08:45:25;;;;;;;6.32;4.68;;;;;;;17.36;85.78;100235.31;5045166;28;20018;-61
2023/06/21 08:47:51;;;;;;;4.63;3.70;;;;;;;17.27;86.87;100244.41;5044908;28;20032;-65
2023/06/21 08:50:22;;;;;;;7.13;4.53;;;;;;;17.24;88.06;100240.13;5044839;28;20037;-61
2023/06/21 08:52:51;;;;;;;4.93;3.50;;;;;;;17.22;88.54;100245.44;5044921;28;20036;-61
2023/06/21 08:55:19;;;;;;;9.02;5.13;;;;;;;17.23;88.73;100241.06;5044826;28;20029;-61
2023/06/21 08:57:58;;;;;;;10.20;5.90;;;;;;;17.23;89.74;100243.69;5044877;28;20026;-61
2023/06/21 09:00:32;;;;;;;7.32;4.90;;;;;;;17.29;89.63;100243.44;5044651;28;20026;-61
2023/06/21 09:03:11;;;;;;;10.45;4.63;;;;;;;17.33;90.30;100245.00;5045079;28;20026;-62
2023/06/21 09:06:15;;;;;;;8.80;5.28;;;;;;;17.36;90.49;100253.69;5044775;28;20013;-62
2023/06/21 09:08:42;;;;;;;7.65;5.10;;;;;;;17.37;90.93;100248.38;5013616;28;20165;-62
2023/06/21 09:11:09;;;;;;;9.38;5.55;;;;;;;17.31;91.13;100246.84;5044569;28;20025;-60
2023/06/21 09:13:37;;;;;;;7.90;4.75;;;;;;;17.31;92.20;100252.09;5044753;28;20244;-62
2023/06/21 09:16:03;;;;;;;5.97;5.25;;;;;;;17.30;92.06;100258.25;5044691;28;20084;-61
2023/06/21 09:18:35;;;;;;;8.18;5.18;;;;;;;17.21;92.73;100261.22;5046086;28;20157;-62
2023/06/21 09:21:02;;;;;;;9.05;6.53;;;;;;;17.19;93.51;100257.81;5048048;28;20036;-61
2023/06/21 09:23:28;;;;;;;9.10;6.65;;;;;;;17.15;94.16;100250.97;5030575;28;20025;-61
2023/06/21 09:25:55;;;;;;;6.80;5.85;;;;;;;17.14;94.49;100262.41;5048240;28;20021;-61
2023/06/21 09:28:21;;;;;;;10.95;5.55;;;;;;;17.12;95.07;100257.22;5048191;28;20028;-61
2023/06/21 09:30:46;;;;;;;6.70;5.95;;;;;;;17.14;95.51;100262.41;5048096;28;20080;-62
2023/06/21 09:33:12;;;;;;;8.95;6.30;;;;;;;17.12;96.14;100261.59;5048069;28;20025;-62
2023/06/21 09:35:39;;;;;;;7.40;5.63;;;;;;;17.15;96.07;100259.72;5047987;28;20030;-63
2023/06/21 09:38:24;;;;;;;9.38;5.45;;;;;;;17.12;96.59;100256.34;5047857;28;20056;-62
2023/06/21 09:40:50;;;;;;;8.10;5.55;;;;;;;17.07;97.01;100254.72;5047973;28;20373;-61
2023/06/21 09:43:18;;;;;;;9.00;4.70;;;;;;;17.14;97.06;100244.03;5047847;28;20021;-63
2023/06/21 09:45:57;;;;;;;8.95;6.47;;;;;;;17.11;96.86;100242.38;5047779;28;20067;-62
2023/06/21 09:48:23;;;;;;;8.52;5.00;;;;;;;17.14;97.28;100244.88;5048007;28;20104;-61
2023/06/21 09:50:48;;;;;;;8.80;5.82;;;;;;;17.18;97.85;100238.59;5047362;28;20032;-62
2023/06/21 09:53:22;;;;;;;8.55;5.80;;;;;;;17.29;97.62;100232.94;5047765;28;20018;-62
2023/06/21 09:55:47;;;;;;;8.95;6.22;;;;;;;17.41;98.50;100236.81;5029921;28;20029;-62
2023/06/21 09:58:14;;;;;;;7.53;5.80;;;;;;;17.54;98.59;100229.31;5047509;28;20072;-61
2023/06/21 10:00:41;;;;;;;9.00;6.82;;;;;;;17.68;98.24;100238.41;5047449;28;20025;-61
2023/06/21 10:03:07;;;;;;;8.75;7.13;;;;;;;17.75;98.76;100221.47;5047691;28;20100;-61
2023/06/21 10:05:32;;;;;;;10.93;6.45;;;;;;;17.93;97.95;100226.88;5047435;28;20021;-61
2023/06/21 10:07:57;;;;;;;9.27;6.72;;;;;;;18.02;97.72;100228.28;5047344;28;20036;-62
2023/06/21 10:10:23;;;;;;;8.00;6.20;;;;;;;18.11;96.40;100222.63;5047422;28;20033;-61
2023/06/21 10:12:52;;;;;;;7.47;6.03;;;;;;;18.12;95.98;100218.25;5047140;28;20112;-62
2023/06/21 10:15:18;;;;;;;11.65;7.53;;;;;;;18.27;96.87;100214.97;5047166;28;20036;-61
2023/06/21 10:17:45;;;;;;;9.10;6.75;;;;;;;18.49;96.91;100223.66;5047498;28;20102;-61
2023/06/21 10:20:14;;;;;;;9.38;6.80;;;;;;;18.64;95.29;100222.13;5047263;28;20113;-63
2023/06/21 10:22:40;;;;;;;9.35;6.72;;;;;;;18.63;93.91;100217.78;5047094;28;20025;-61
2023/06/21 10:25:06;;;;;;;12.27;8.13;;;;;;;18.65;94.11;100218.56;5047233;28;20434;-61
2023/06/21 10:27:35;;;;;;;7.45;6.43;;;;;;;18.72;94.72;100206.88;5047074;28;20024;-62
2023/06/21 10:30:03;;;;;;;10.38;6.53;;;;;;;18.92;95.35;100219.09;5046939;28;20017;-61
2023/06/21 10:32:33;;;;;;;12.35;8.23;;;;;;;19.12;95.07;100229.63;5047140;28;20048;-62
2023/06/21 10:35:19;;;;;;;13.85;6.53;;;;;;;19.25;94.85;100225.47;5047055;28;20041;-63
2023/06/21 10:37:48;;;;;;;9.27;6.63;;;;;;;19.39;91.45;100232.69;5046846;28;20045;-62
2023/06/21 10:40:14;;;;;;;10.75;7.03;;;;;;;19.31;89.79;100219.91;5047020;28;20033;-62
2023/06/21 10:42:41;;;;;;;11.70;6.57;;;;;;;19.30;90.69;100220.84;5046775;28;20029;-61
2023/06/21 10:45:09;;;;;;;10.60;6.68;;;;;;;19.42;91.41;100216.78;5046959;28;20024;-61
2023/06/21 10:47:35;;;;;;;7.63;6.20;;;;;;;19.67;90.86;100209.44;5046750;28;20036;-61
2023/06/21 10:50:02;;;;;;;9.73;6.88;;;;;;;19.87;88.21;100208.41;5046774;28;20021;-64
2023/06/21 10:52:29;;;;;;;9.25;6.68;;;;;;;19.84;88.67;100202.47;5046482;28;20029;-62
2023/06/21 10:54:58;;;;;;;8.95;6.55;;;;;;;19.66;88.43;100182.25;5046530;28;20091;-61
2023/06/21 10:57:29;;;;;;;14.32;7.93;;;;;;;19.82;89.80;100195.47;5046625;28;20021;-62
2023/06/21 10:59:57;;;;;;;9.93;6.47;;;;;;;19.99;87.32;100193.78;5046626;28;20036;-61
2023/06/21 11:02:23;;;;;;;10.18;7.55;;;;;;;19.89;87.47;100195.19;5046434;28;20017;-61
2023/06/21 11:05:14;;;;;;;11.50;7.85;;;;;;;19.94;88.13;100203.69;5046536;28;20021;-60
2023/06/21 11:07:50;;;;;;;8.70;6.55;;;;;;;19.74;87.06;100202.94;5046175;28;20097;-61
2023/06/21 11:10:16;;;;;;;11.52;7.78;;;;;;;19.66;87.36;100208.59;5046210;28;20033;-62
2023/06/21 11:12:41;;;;;;;11.77;6.97;;;;;;;19.65;87.33;100208.69;5046275;28;20084;-61
2023/06/21 11:15:07;;;;;;;10.35;6.68;;;;;;;19.60;88.13;100208.03;5046128;28;20029;-61
2023/06/21 11:17:36;;;;;;;7.55;6.72;;;;;;;19.73;89.50;100203.84;5044485;28;20108;-63
2023/06/21 11:20:22;;;;;;;14.20;7.88;;;;;;;19.85;89.20;100189.22;5046224;28;20021;-60
2023/06/21 11:23:22;;;;;;;10.05;7.70;;;;;;;19.89;89.09;100198.66;5045813;28;20083;-60
2023/06/21 11:25:58;;;;;;;11.32;7.30;;;;;;;19.99;87.90;100206.09;5045949;28;20028;-61